Airfield :
LOGIN :

Register | Disclaimer

   EN    FR    IT 

 










Legend :    VFR   Marginal VFR   IFR   Intensive IFR   Very Intensive IFR
Visi :
Ceiling :
>= 8 km
>= 3000ft
5 to 8 km
1000 to 3000 ft
1500m to 5 km
500 to 1000 ft
800 to 1500m
200 to 500 ft
< 800m
< 200 ft
Symbols :   Thunderstorms  Fog  Heavy snow  Heavy precipitations  Wind > 20 kt
SIGMETs :     Misc.  Thunderstorms  Icing  Turbulence  Mountain Waves  Volcanic Ashes






- Airport Elevation : 14 ft
- IATA code : BRE


EDDW - Bremen Neuenland

CURRENT METAR :
  • 260050Z 17007KT 8000 -SN BKN009 01/M00 Q1006 R88/190095

EXPIRED METARs :
  • 260020Z 19007KT 160V220 6000 -SN BKN008 01/M00 Q1006 R88/190095
  • 252350Z 18006KT 9999 BKN011 01/M01 Q1006 R88/190095
  • 252320Z 18005KT 9999 BKN016 02/M01 Q1006 R88/190095

TAF TAF EDDW
Valid from the 26 at 00:00 until the 27 at 00:00 UTC


252300Z 2600/2624 VRB03KT 8000 BKN010
BECMG 2600/2602 BKN008
TEMPO 2600/2607 4000 -SN BR BKN003
BECMG 2605/2607 32007KT
BECMG 2608/2611 SCT020
BECMG 2613/2615 25007KT
PROB30
TEMPO 2621/2624 BKN012



MET'MAP, your aeronautical weather chart ! - Copyright ORBIFLY December 2007 - Disclaimer

ORBIFLY MET'MAP TEAM :

Programming & Development : Alexandra Zaïnal
Concept & original design : Baudouin d'Aumeries
Assistance for programming : Marc-Olivier Méhu
Technical & hardware support : Manuel Goepfert

Contact : metmap@orbifly.com




SOURCES & CREDITS :

   NOAA